Time;durP1;ratioP1;P1;durP2;ratioP2;P2;SDS_P1;SDS_P2;PMS_P1;PMS_P2;Temp;Humidity;BMP_temperature;BMP_pressure;BME280_temperature;BME280_humidity;BME280_pressure;Samples;Min_cycle;Max_cycle;Signal;HPM_P1;HPM_P2
2022/11/30 00:00:21;;;;;;;154.65;20.00;;;3.60;99.90;;;;;;5054786;28;20051;-45
2022/11/30 00:02:48;;;;;;;127.55;19.10;;;3.50;99.90;;;;;;5055553;28;20040;-49
2022/11/30 00:05:14;;;;;;;138.60;19.15;;;3.50;99.90;;;;;;5054872;28;20083;-46
2022/11/30 00:07:40;;;;;;;151.02;19.63;;;3.40;99.90;;;;;;5056027;28;20156;-44
2022/11/30 00:10:06;;;;;;;84.43;15.43;;;3.40;99.90;;;;;;5055676;28;20044;-42
2022/11/30 00:12:32;;;;;;;63.22;14.25;;;3.30;99.90;;;;;;5055389;28;20506;-44
2022/11/30 00:14:58;;;;;;;33.28;12.60;;;3.30;99.90;;;;;;5054188;28;20052;-44
2022/11/30 00:17:24;;;;;;;21.67;14.05;;;3.30;99.90;;;;;;5055974;28;20045;-46
2022/11/30 00:19:49;;;;;;;28.83;20.50;;;3.20;99.90;;;;;;5054824;28;20138;-47
2022/11/30 00:22:15;;;;;;;21.67;17.15;;;3.20;99.90;;;;;;5056323;28;20080;-45
2022/11/30 00:24:41;;;;;;;25.15;16.23;;;3.20;99.90;;;;;;5055769;28;20044;-43
2022/11/30 00:27:06;;;;;;;23.38;14.68;;;3.10;99.90;;;;;;5056015;28;20052;-43
2022/11/30 00:29:33;;;;;;;62.10;16.25;;;3.10;99.90;;;;;;5054491;28;20397;-43
2022/11/30 00:31:58;;;;;;;62.20;14.68;;;3.20;99.90;;;;;;5054595;28;20072;-46
2022/11/30 00:34:24;;;;;;;86.07;15.93;;;3.10;99.90;;;;;;5055847;28;20632;-47
2022/11/30 00:36:49;;;;;;;53.63;13.82;;;3.00;99.90;;;;;;5055587;28;20044;-47
2022/11/30 00:39:15;;;;;;;69.25;14.52;;;3.00;99.90;;;;;;5055162;28;20403;-44
2022/11/30 00:41:41;;;;;;;226.43;19.73;;;3.00;99.90;;;;;;5053998;28;20061;-42
2022/11/30 00:44:06;;;;;;;197.43;18.90;;;3.10;99.90;;;;;;5054057;28;20286;-45
2022/11/30 00:46:32;;;;;;;165.35;18.85;;;3.00;99.90;;;;;;5054945;28;20118;-46
2022/11/30 00:48:57;;;;;;;166.13;16.08;;;3.10;99.90;;;;;;5055114;28;20044;-46
2022/11/30 00:51:23;;;;;;;109.03;15.35;;;3.10;99.90;;;;;;5056174;28;20091;-41
2022/11/30 00:53:49;;;;;;;130.95;16.02;;;3.10;99.90;;;;;;5049963;28;20493;-46
2022/11/30 00:56:15;;;;;;;75.30;13.60;;;3.00;99.90;;;;;;5055784;28;20055;-48
2022/11/30 00:58:40;;;;;;;79.90;14.57;;;3.00;99.90;;;;;;5055150;28;20076;-47
2022/11/30 01:01:07;;;;;;;53.55;16.17;;;3.10;99.90;;;;;;5055258;28;20560;-45
2022/11/30 01:03:33;;;;;;;66.53;16.00;;;3.10;99.90;;;;;;5054302;28;20055;-48
2022/11/30 01:06:04;;;;;;;47.72;16.33;;;3.20;99.90;;;;;;5055162;28;20055;-45
2022/11/30 01:08:29;;;;;;;33.13;16.92;;;3.20;99.90;;;;;;5055359;28;20072;-45
2022/11/30 01:10:56;;;;;;;19.13;15.55;;;3.20;99.90;;;;;;5054767;28;20055;-44
2022/11/30 01:13:23;;;;;;;22.88;17.20;;;3.40;99.90;;;;;;5055545;28;20495;-44
2022/11/30 01:15:48;;;;;;;21.35;16.25;;;3.50;99.90;;;;;;5055233;28;20048;-42
2022/11/30 01:18:14;;;;;;;22.52;17.10;;;3.60;99.90;;;;;;5056006;28;20051;-49
2022/11/30 01:20:43;;;;;;;26.95;19.23;;;3.60;99.90;;;;;;5054908;28;20496;-46
2022/11/30 01:23:10;;;;;;;25.13;18.33;;;3.70;99.90;;;;;;5055187;28;20049;-44
2022/11/30 01:25:35;;;;;;;25.88;18.70;;;3.70;99.90;;;;;;5054901;28;20048;-43
2022/11/30 01:28:01;;;;;;;24.13;17.92;;;3.90;99.90;;;;;;5053927;28;20543;-46
2022/11/30 01:30:26;;;;;;;24.40;18.45;;;3.90;99.90;;;;;;5055557;28;20048;-48
2022/11/30 01:32:52;;;;;;;21.83;18.13;;;3.90;99.90;;;;;;5058352;28;20039;-43
2022/11/30 01:35:18;;;;;;;25.67;18.70;;;3.90;99.90;;;;;;5058607;28;20045;-46
2022/11/30 01:37:43;;;;;;;26.02;19.30;;;4.00;99.90;;;;;;5057743;28;20056;-43
2022/11/30 01:40:10;;;;;;;27.63;20.58;;;4.10;99.90;;;;;;5058032;28;20052;-43
2022/11/30 01:42:36;;;;;;;29.90;20.30;;;4.20;99.90;;;;;;5056906;28;20415;-44
2022/11/30 01:45:04;;;;;;;27.85;19.38;;;4.30;99.90;;;;;;5057193;28;20519;-48
2022/11/30 01:47:44;;;;;;;24.13;18.70;;;4.40;99.90;;;;;;5057194;28;20045;-46
2022/11/30 01:50:16;;;;;;;30.02;19.85;;;4.40;99.90;;;;;;5057939;28;20853;-45
2022/11/30 01:52:45;;;;;;;30.67;19.85;;;4.30;99.90;;;;;;5050130;28;20178;-46
2022/11/30 01:55:34;;;;;;;26.50;19.10;;;4.40;99.90;;;;;;5058544;28;20048;-46
2022/11/30 01:58:05;;;;;;;27.55;18.88;;;4.40;99.90;;;;;;5058555;28;20051;-46
2022/11/30 02:00:31;;;;;;;32.78;20.58;;;4.40;99.90;;;;;;5057682;28;20063;-45
2022/11/30 02:03:12;;;;;;;30.90;20.10;;;4.60;99.90;;;;;;5055768;28;20060;-48
2022/11/30 02:05:40;;;;;;;33.42;21.17;;;4.60;99.90;;;;;;5057573;28;20058;-45
2022/11/30 02:08:07;;;;;;;23.15;17.35;;;4.70;99.90;;;;;;5057790;28;20058;-44
2022/11/30 02:10:36;;;;;;;21.95;16.38;;;4.60;99.90;;;;;;5055908;28;20185;-46
2022/11/30 02:13:14;;;;;;;20.63;16.33;;;4.60;99.90;;;;;;5056572;28;20415;-43
2022/11/30 02:15:48;;;;;;;20.48;16.42;;;4.50;99.90;;;;;;5057612;28;20048;-46
2022/11/30 02:18:26;;;;;;;24.23;18.00;;;4.50;99.90;;;;;;5057695;28;20071;-46
2022/11/30 02:21:04;;;;;;;21.77;15.63;;;4.40;99.90;;;;;;5058121;28;20106;-42
2022/11/30 02:23:55;;;;;;;17.98;15.27;;;4.40;99.90;;;;;;5057427;28;20108;-46
2022/11/30 02:26:38;;;;;;;21.52;15.88;;;4.20;99.90;;;;;;5057923;28;20080;-45
2022/11/30 02:29:03;;;;;;;29.77;17.40;;;4.20;99.90;;;;;;5044761;28;20094;-47
2022/11/30 02:31:56;;;;;;;23.27;16.67;;;4.20;99.90;;;;;;5057888;28;20135;-46
2022/11/30 02:34:25;;;;;;;22.90;16.40;;;4.20;99.90;;;;;;5023044;28;20559;-45
2022/11/30 02:36:52;;;;;;;24.85;15.93;;;4.20;99.90;;;;;;5014391;28;20423;-45
2022/11/30 02:39:20;;;;;;;24.73;16.40;;;4.20;99.90;;;;;;5024892;28;20056;-45
2022/11/30 02:41:46;;;;;;;24.25;15.75;;;4.10;99.90;;;;;;5018086;28;20605;-48
2022/11/30 02:44:12;;;;;;;26.10;17.70;;;4.20;99.90;;;;;;5001842;28;20054;-47
2022/11/30 02:47:04;;;;;;;26.92;17.80;;;4.20;99.90;;;;;;5011058;28;20679;-46
2022/11/30 02:49:51;;;;;;;28.65;19.08;;;4.30;99.90;;;;;;4999128;28;20076;-50
2022/11/30 02:52:20;;;;;;;31.27;15.75;;;4.30;99.90;;;;;;5011071;28;20100;-46
2022/11/30 02:54:46;;;;;;;18.75;14.45;;;4.10;99.90;;;;;;5025182;28;20449;-44
2022/11/30 02:57:11;;;;;;;18.55;13.02;;;4.10;99.90;;;;;;4991793;28;20590;-45
2022/11/30 02:59:37;;;;;;;18.25;13.85;;;4.10;99.90;;;;;;5020203;28;20091;-45
2022/11/30 03:02:03;;;;;;;22.95;15.68;;;4.00;99.90;;;;;;5015249;28;20397;-47
2022/11/30 03:04:28;;;;;;;22.55;15.18;;;4.00;99.90;;;;;;5026118;28;20095;-48
2022/11/30 03:06:54;;;;;;;21.80;14.30;;;3.90;99.90;;;;;;5013109;28;20526;-45
2022/11/30 03:09:20;;;;;;;23.92;15.18;;;3.90;99.90;;;;;;5026701;28;20056;-48
2022/11/30 03:11:45;;;;;;;22.05;14.70;;;3.90;99.90;;;;;;5031963;28;20380;-44
2022/11/30 03:14:11;;;;;;;23.40;15.43;;;3.90;99.90;;;;;;5056550;28;20113;-45
2022/11/30 03:16:37;;;;;;;20.77;15.00;;;3.70;99.90;;;;;;5057445;28;20557;-45
2022/11/30 03:19:04;;;;;;;28.88;15.25;;;3.70;99.90;;;;;;5056048;28;20062;-43
2022/11/30 03:21:30;;;;;;;180.73;19.67;;;3.70;99.90;;;;;;5057442;28;20499;-45
2022/11/30 03:23:55;;;;;;;17.00;11.40;;;3.60;99.90;;;;;;5057344;28;20044;-44
2022/11/30 03:26:21;;;;;;;19.65;13.52;;;3.50;99.90;;;;;;5057512;28;20048;-46
2022/11/30 03:28:47;;;;;;;25.60;17.67;;;3.50;99.90;;;;;;5055937;28;20047;-44
2022/11/30 03:31:13;;;;;;;28.25;18.73;;;3.50;99.90;;;;;;5055187;28;20060;-44
2022/11/30 03:33:42;;;;;;;21.73;15.38;;;3.30;99.90;;;;;;5055995;28;20055;-48
2022/11/30 03:36:10;;;;;;;20.17;15.02;;;3.40;99.90;;;;;;5056393;28;20556;-46
2022/11/30 03:38:36;;;;;;;20.65;14.15;;;3.30;99.90;;;;;;5055884;28;20076;-42
2022/11/30 03:41:08;;;;;;;23.73;15.52;;;3.20;99.90;;;;;;5049979;28;20127;-43
2022/11/30 03:43:34;;;;;;;80.43;18.17;;;3.20;99.90;;;;;;5043685;28;20048;-46
2022/11/30 03:46:00;;;;;;;22.77;13.75;;;3.20;99.90;;;;;;5056063;28;20048;-45
2022/11/30 03:48:26;;;;;;;22.20;10.45;;;3.20;99.90;;;;;;5056433;28;20048;-42
2022/11/30 03:50:52;;;;;;;149.77;13.32;;;3.20;99.90;;;;;;5055018;28;20091;-45
2022/11/30 03:53:20;;;;;;;100.28;9.77;;;3.10;99.90;;;;;;5055146;28;20467;-45
2022/11/30 03:55:50;;;;;;;81.90;10.05;;;3.10;99.90;;;;;;5056058;28;20393;-43
2022/11/30 03:58:16;;;;;;;62.78;10.07;;;2.90;99.90;;;;;;5055234;28;20470;-44
2022/11/30 04:00:41;;;;;;;53.60;9.02;;;2.90;99.90;;;;;;5055610;28;20218;-43
2022/11/30 04:03:07;;;;;;;159.35;12.15;;;2.90;99.90;;;;;;5055382;28;20049;-48
2022/11/30 04:05:33;;;;;;;231.45;17.20;;;2.80;99.90;;;;;;5054407;28;20059;-43
2022/11/30 04:07:58;;;;;;;261.63;19.27;;;2.80;99.90;;;;;;5054374;28;20044;-47
2022/11/30 04:10:24;;;;;;;273.20;18.30;;;2.80;99.90;;;;;;5055599;28;20124;-45
2022/11/30 04:12:50;;;;;;;141.35;13.52;;;2.80;99.90;;;;;;5055065;28;20226;-45
2022/11/30 04:15:15;;;;;;;113.57;13.70;;;2.70;99.90;;;;;;5053993;28;20106;-45
2022/11/30 04:17:41;;;;;;;161.98;15.15;;;2.70;99.90;;;;;;5055562;28;20057;-46
2022/11/30 04:20:07;;;;;;;255.45;21.23;;;2.60;99.90;;;;;;5054995;28;20111;-43
2022/11/30 04:22:33;;;;;;;164.73;15.48;;;2.60;99.90;;;;;;5055507;28;20059;-44
2022/11/30 04:24:59;;;;;;;153.55;15.05;;;2.40;99.90;;;;;;5056683;28;20048;-47
2022/11/30 04:27:24;;;;;;;81.75;13.05;;;2.30;99.90;;;;;;5056310;28;20057;-49
2022/11/30 04:29:50;;;;;;;57.65;13.52;;;2.40;99.90;;;;;;5055411;28;20523;-47
2022/11/30 04:32:16;;;;;;;86.70;15.23;;;2.40;99.90;;;;;;5056247;28;20137;-45
2022/11/30 04:34:42;;;;;;;128.93;16.23;;;2.40;99.90;;;;;;5056516;28;20052;-45
2022/11/30 04:37:08;;;;;;;81.13;15.45;;;2.40;99.90;;;;;;5056091;28;20135;-45
2022/11/30 04:39:34;;;;;;;58.70;14.18;;;2.40;99.90;;;;;;5056411;28;20097;-45
2022/11/30 04:42:00;;;;;;;56.35;15.05;;;2.40;99.90;;;;;;5046136;28;20542;-48
2022/11/30 04:44:26;;;;;;;162.65;22.67;;;2.50;99.90;;;;;;5056461;28;20056;-48
2022/11/30 04:46:53;;;;;;;24.80;14.02;;;2.50;99.90;;;;;;5055032;28;20539;-41
2022/11/30 04:49:18;;;;;;;23.00;11.45;;;2.50;99.90;;;;;;5053940;28;20131;-42
2022/11/30 04:51:44;;;;;;;31.83;13.10;;;2.60;99.90;;;;;;5055839;28;20044;-41
2022/11/30 04:54:09;;;;;;;65.50;13.50;;;2.70;99.90;;;;;;5059619;28;20472;-48
2022/11/30 04:56:35;;;;;;;102.80;13.95;;;2.60;99.90;;;;;;5055449;28;20410;-45
2022/11/30 04:59:01;;;;;;;83.28;13.82;;;2.60;99.90;;;;;;5055087;28;20051;-43
2022/11/30 05:01:27;;;;;;;44.20;12.73;;;2.50;99.90;;;;;;5054060;28;20052;-46
2022/11/30 05:03:52;;;;;;;51.58;13.10;;;2.60;99.90;;;;;;5054293;28;20056;-42
2022/11/30 05:06:18;;;;;;;95.38;19.25;;;2.80;99.90;;;;;;5058133;28;20102;-42
2022/11/30 05:08:44;;;;;;;90.88;16.67;;;2.80;99.90;;;;;;5041200;28;20053;-42
2022/11/30 05:11:09;;;;;;;85.43;17.02;;;2.70;99.90;;;;;;5059463;28;20485;-48
2022/11/30 05:13:35;;;;;;;77.93;16.33;;;2.80;99.90;;;;;;5059578;28;20114;-48
2022/11/30 05:16:01;;;;;;;74.70;14.48;;;2.90;99.90;;;;;;5060306;28;20466;-43
2022/11/30 05:18:28;;;;;;;97.07;16.00;;;2.90;99.90;;;;;;5059641;28;20070;-49
2022/11/30 05:20:54;;;;;;;86.75;15.05;;;2.90;99.90;;;;;;5059690;28;20131;-43
2022/11/30 05:23:20;;;;;;;69.75;13.02;;;2.80;99.90;;;;;;5059027;28;20059;-44
2022/11/30 05:25:46;;;;;;;99.88;15.77;;;2.90;99.90;;;;;;5059322;28;20048;-44
2022/11/30 05:28:12;;;;;;;160.40;16.92;;;2.80;99.90;;;;;;5058700;28;20044;-42
2022/11/30 05:30:40;;;;;;;144.38;18.15;;;2.80;99.90;;;;;;5059140;28;20045;-46
2022/11/30 05:33:06;;;;;;;143.95;17.33;;;3.00;99.90;;;;;;5058439;28;20562;-48
2022/11/30 05:35:31;;;;;;;106.32;15.43;;;3.00;99.90;;;;;;5058819;28;20059;-49
2022/11/30 05:37:57;;;;;;;127.93;17.60;;;3.00;99.90;;;;;;5057984;28;20051;-46
2022/11/30 05:40:24;;;;;;;167.55;19.73;;;3.00;99.90;;;;;;5061872;28;20052;-43
2022/11/30 05:42:55;;;;;;;178.38;22.73;;;3.00;99.90;;;;;;5051950;28;20458;-45
2022/11/30 05:45:21;;;;;;;120.82;19.52;;;3.10;99.90;;;;;;5059299;28;20064;-49
2022/11/30 05:47:47;;;;;;;106.55;17.67;;;3.10;99.90;;;;;;5058839;28;20052;-45
2022/11/30 05:50:12;;;;;;;96.97;17.20;;;3.10;99.90;;;;;;5058442;28;20359;-46
2022/11/30 05:52:38;;;;;;;108.95;19.40;;;3.20;99.90;;;;;;5052506;28;20471;-49
2022/11/30 05:55:04;;;;;;;47.40;17.88;;;3.20;99.90;;;;;;5045940;28;20124;-45
2022/11/30 05:57:30;;;;;;;227.30;40.33;;;3.20;99.90;;;;;;5072153;28;20070;-46
2022/11/30 05:59:56;;;;;;;42.13;17.80;;;3.20;99.90;;;;;;5058624;28;20102;-45
2022/11/30 06:02:21;;;;;;;30.60;15.10;;;3.30;99.90;;;;;;5057348;28;20044;-47
2022/11/30 06:04:47;;;;;;;28.20;16.63;;;3.20;99.90;;;;;;5059124;28;20106;-45
2022/11/30 06:07:12;;;;;;;26.42;16.67;;;3.40;99.90;;;;;;5058160;28;20418;-45
2022/11/30 06:09:38;;;;;;;29.73;17.10;;;3.40;99.90;;;;;;5056017;28;20503;-45
2022/11/30 06:12:04;;;;;;;26.50;16.17;;;3.40;99.90;;;;;;5058146;28;20562;-42
2022/11/30 06:14:30;;;;;;;22.80;16.50;;;3.40;99.90;;;;;;5058721;28;20052;-46
2022/11/30 06:16:56;;;;;;;21.17;16.58;;;3.40;99.90;;;;;;5039757;28;20464;-49
2022/11/30 06:19:21;;;;;;;19.35;14.88;;;3.50;99.90;;;;;;5057584;28;20052;-46
2022/11/30 06:21:47;;;;;;;20.15;15.77;;;3.60;99.90;;;;;;5057419;28;20036;-47
2022/11/30 06:24:13;;;;;;;20.25;16.58;;;3.60;99.90;;;;;;5057781;28;20083;-44
2022/11/30 06:26:39;;;;;;;20.23;15.60;;;3.70;99.90;;;;;;5057413;28;20052;-44
2022/11/30 06:29:04;;;;;;;18.67;14.40;;;3.60;99.90;;;;;;5057483;28;20059;-46
2022/11/30 06:31:30;;;;;;;18.00;13.85;;;3.60;99.90;;;;;;5056544;28;20044;-45
2022/11/30 06:33:57;;;;;;;18.15;15.43;;;3.70;99.90;;;;;;5057299;28;20051;-47
2022/11/30 06:36:23;;;;;;;22.88;16.27;;;3.50;99.90;;;;;;5057967;28;20052;-43
2022/11/30 06:38:49;;;;;;;20.90;15.80;;;3.70;99.90;;;;;;5056749;28;20424;-44
2022/11/30 06:41:15;;;;;;;21.85;15.57;;;3.70;99.90;;;;;;5056228;28;20437;-47
2022/11/30 06:43:40;;;;;;;20.25;14.45;;;3.50;99.90;;;;;;5057532;28;20056;-48
2022/11/30 06:46:06;;;;;;;20.70;16.35;;;3.50;99.90;;;;;;5057711;28;20058;-45
2022/11/30 06:48:32;;;;;;;22.70;16.10;;;3.60;99.90;;;;;;5056380;28;20572;-47
2022/11/30 06:50:59;;;;;;;22.45;16.67;;;3.60;99.90;;;;;;5057777;28;20541;-47
2022/11/30 06:53:25;;;;;;;19.15;15.68;;;3.70;99.90;;;;;;5055878;28;20059;-46
2022/11/30 06:55:51;;;;;;;17.60;14.80;;;3.80;99.90;;;;;;5057035;28;20044;-45
2022/11/30 06:58:17;;;;;;;28.13;18.20;;;3.80;99.90;;;;;;5056560;28;20048;-45
2022/11/30 07:00:42;;;;;;;22.08;16.85;;;3.80;99.90;;;;;;5057052;28;20633;-49
2022/11/30 07:03:10;;;;;;;21.50;16.30;;;4.00;99.90;;;;;;5057029;28;20082;-49
2022/11/30 07:05:44;;;;;;;22.23;16.73;;;3.90;99.90;;;;;;5057536;28;20548;-43
2022/11/30 07:08:11;;;;;;;24.15;16.30;;;3.90;99.90;;;;;;5055129;28;20071;-46
2022/11/30 07:10:41;;;;;;;20.15;16.20;;;4.00;99.90;;;;;;5057049;28;20052;-43
2022/11/30 07:13:11;;;;;;;20.98;16.77;;;4.10;99.90;;;;;;5057353;28;20106;-43
2022/11/30 07:15:37;;;;;;;23.40;17.15;;;4.00;99.90;;;;;;5056793;28;20045;-47
2022/11/30 07:18:03;;;;;;;20.80;16.98;;;4.10;99.90;;;;;;5056590;28;20045;-47
2022/11/30 07:20:29;;;;;;;21.77;16.83;;;4.10;99.90;;;;;;5043578;28;20052;-47
2022/11/30 07:22:55;;;;;;;28.88;19.25;;;4.10;99.90;;;;;;5057767;28;20144;-46
2022/11/30 07:28:07;;;;;;;27.63;19.42;;;4.20;99.90;;;;;;5053920;28;20418;-47
2022/11/30 07:30:33;;;;;;;25.17;18.92;;;4.30;99.90;;;;;;5056268;28;20109;-46
2022/11/30 07:32:59;;;;;;;31.90;21.27;;;4.20;99.90;;;;;;5056082;28;20044;-45
2022/11/30 07:35:25;;;;;;;27.90;20.25;;;4.40;99.90;;;;;;5057192;28;20067;-46
2022/11/30 07:37:50;;;;;;;29.67;19.80;;;4.30;99.90;;;;;;5056690;28;20155;-47
2022/11/30 07:40:16;;;;;;;33.20;21.80;;;4.40;99.90;;;;;;5054429;28;20059;-44
2022/11/30 07:42:42;;;;;;;36.30;24.52;;;4.50;99.90;;;;;;5055704;28;20037;-46
2022/11/30 07:45:08;;;;;;;34.50;24.08;;;4.40;99.90;;;;;;5055862;28;20048;-48
2022/11/30 07:47:34;;;;;;;33.53;23.85;;;4.50;99.90;;;;;;5055935;28;20087;-46
2022/11/30 07:50:00;;;;;;;32.47;22.40;;;4.60;99.90;;;;;;5053811;28;20103;-47
2022/11/30 07:52:26;;;;;;;36.85;23.88;;;4.60;99.90;;;;;;5050673;28;20567;-46
2022/11/30 07:54:51;;;;;;;38.95;23.75;;;4.70;99.90;;;;;;5054675;28;20047;-45
2022/11/30 07:57:17;;;;;;;36.63;22.92;;;4.70;99.90;;;;;;5055856;28;20052;-46
2022/11/30 07:59:43;;;;;;;31.30;21.75;;;4.70;99.90;;;;;;5054539;28;20067;-43
2022/11/30 08:02:09;;;;;;;28.80;20.65;;;4.80;99.90;;;;;;5055843;28;20539;-47
2022/11/30 08:04:35;;;;;;;27.30;19.55;;;4.80;99.90;;;;;;5055304;28;20079;-47
2022/11/30 08:07:01;;;;;;;26.10;19.45;;;4.80;99.90;;;;;;5055950;28;20140;-47
2022/11/30 08:09:26;;;;;;;30.85;19.73;;;4.90;99.90;;;;;;5054531;28;20572;-49
2022/11/30 08:11:52;;;;;;;31.50;20.83;;;4.90;99.90;;;;;;5042905;28;20504;-45
2022/11/30 08:14:17;;;;;;;27.70;21.05;;;4.80;99.90;;;;;;5040524;28;20049;-46
2022/11/30 08:16:43;;;;;;;31.70;23.25;;;5.00;99.90;;;;;;5042540;28;20068;-44
2022/11/30 08:19:09;;;;;;;39.28;26.88;;;4.90;99.90;;;;;;5039010;28;20140;-43
2022/11/30 08:21:36;;;;;;;48.15;30.13;;;4.90;99.90;;;;;;5043251;28;20044;-49
2022/11/30 08:24:02;;;;;;;39.40;25.92;;;5.00;99.90;;;;;;5042179;28;20086;-45
2022/11/30 08:26:32;;;;;;;44.90;28.10;;;5.00;99.90;;;;;;5034379;28;20511;-47
2022/11/30 08:28:59;;;;;;;38.83;26.30;;;5.10;99.90;;;;;;5048788;28;20044;-45
2022/11/30 08:31:28;;;;;;;45.47;27.83;;;5.00;99.90;;;;;;5054808;28;20067;-48
2022/11/30 08:33:56;;;;;;;42.75;27.25;;;5.00;99.90;;;;;;5051166;28;20051;-44
2022/11/30 08:36:22;;;;;;;44.42;27.30;;;5.10;99.90;;;;;;5055697;28;20585;-44
2022/11/30 08:38:48;;;;;;;45.33;27.13;;;5.10;99.90;;;;;;5054056;28;20114;-46
2022/11/30 08:41:17;;;;;;;48.25;29.20;;;5.00;99.90;;;;;;5054595;28;20511;-44
2022/11/30 08:43:43;;;;;;;44.13;27.55;;;5.10;99.90;;;;;;5055248;28;20495;-46
2022/11/30 08:46:12;;;;;;;45.95;27.42;;;5.20;99.90;;;;;;5055426;28;20107;-45
2022/11/30 08:48:38;;;;;;;49.65;28.25;;;5.30;99.90;;;;;;5055185;28;20597;-46
2022/11/30 08:51:06;;;;;;;47.53;27.35;;;5.40;99.90;;;;;;5054885;28;20056;-45
2022/11/30 08:53:32;;;;;;;54.17;29.80;;;5.50;99.90;;;;;;5050204;28;20036;-43
2022/11/30 08:56:00;;;;;;;49.47;28.77;;;5.60;99.90;;;;;;5055543;28;20055;-45
2022/11/30 08:58:28;;;;;;;48.75;28.55;;;5.70;99.90;;;;;;5055169;28;20452;-50
2022/11/30 09:00:54;;;;;;;47.15;29.75;;;5.70;99.90;;;;;;5055750;28;20044;-43
2022/11/30 09:03:21;;;;;;;52.97;30.33;;;5.90;99.90;;;;;;5053473;28;20670;-46
2022/11/30 09:05:46;;;;;;;48.00;28.98;;;5.90;99.90;;;;;;5053026;28;20044;-46
2022/11/30 09:08:12;;;;;;;48.80;30.45;;;5.90;99.90;;;;;;5051381;28;20094;-44
2022/11/30 09:10:37;;;;;;;53.83;32.17;;;6.00;99.90;;;;;;5053588;28;20656;-43
2022/11/30 09:13:03;;;;;;;52.53;31.17;;;6.00;99.90;;;;;;5043730;28;20411;-46
2022/11/30 09:15:29;;;;;;;50.63;30.58;;;6.10;99.90;;;;;;5032573;28;20044;-46
2022/11/30 09:17:54;;;;;;;50.35;30.10;;;6.20;99.90;;;;;;5036198;28;20045;-45
2022/11/30 09:20:20;;;;;;;47.97;30.23;;;6.10;99.90;;;;;;5035006;28;20044;-46
2022/11/30 09:22:45;;;;;;;55.03;31.33;;;6.20;99.90;;;;;;5036394;28;20048;-46
2022/11/30 09:25:11;;;;;;;52.45;30.33;;;6.20;99.90;;;;;;5036607;28;20069;-47
2022/11/30 09:27:37;;;;;;;45.72;27.98;;;6.20;99.90;;;;;;5073180;28;20080;-50
2022/11/30 09:30:03;;;;;;;43.42;27.42;;;6.20;99.90;;;;;;5036133;28;20037;-46
2022/11/30 09:32:28;;;;;;;46.72;28.63;;;6.20;99.90;;;;;;5036404;28;20395;-46
2022/11/30 09:34:54;;;;;;;45.67;29.65;;;6.20;99.90;;;;;;5037215;28;20048;-47
2022/11/30 09:37:21;;;;;;;45.03;27.98;;;6.10;99.90;;;;;;5033752;28;20056;-45
2022/11/30 09:39:46;;;;;;;48.75;30.50;;;6.20;99.90;;;;;;5043610;28;20057;-47
2022/11/30 09:42:16;;;;;;;54.75;31.23;;;6.20;99.90;;;;;;5037942;28;20098;-49
2022/11/30 09:44:57;;;;;;;51.85;31.50;;;6.30;99.90;;;;;;5037459;28;20680;-47
2022/11/30 09:47:50;;;;;;;53.55;30.50;;;6.20;99.90;;;;;;5034770;28;20049;-43
2022/11/30 09:50:20;;;;;;;51.88;31.92;;;6.20;99.90;;;;;;5036470;28;20387;-50
2022/11/30 09:52:52;;;;;;;50.08;30.58;;;6.30;99.90;;;;;;5037741;28;20062;-43
2022/11/30 09:55:34;;;;;;;52.10;31.30;;;6.40;99.90;;;;;;5042287;28;20159;-44
2022/11/30 09:58:03;;;;;;;54.33;32.53;;;6.40;99.90;;;;;;5043017;28;20494;-48
2022/11/30 10:00:29;;;;;;;55.15;34.05;;;6.40;99.90;;;;;;5041818;28;20049;-46
2022/11/30 10:02:57;;;;;;;57.55;33.47;;;6.50;99.90;;;;;;5043374;28;20110;-47
2022/11/30 10:05:34;;;;;;;53.75;32.53;;;6.40;99.90;;;;;;5036068;28;20049;-43
2022/11/30 10:08:05;;;;;;;60.03;34.40;;;6.50;99.90;;;;;;5043908;28;20049;-47
2022/11/30 10:10:45;;;;;;;55.60;35.55;;;6.50;99.90;;;;;;5037484;28;20052;-47
2022/11/30 10:13:23;;;;;;;57.85;34.95;;;6.50;99.90;;;;;;5053939;28;20094;-47
2022/11/30 10:15:58;;;;;;;63.85;38.00;;;6.40;99.90;;;;;;5054643;28;20055;-45
2022/11/30 10:19:00;;;;;;;60.30;36.28;;;6.40;99.90;;;;;;5057494;28;20486;-43
2022/11/30 10:21:58;;;;;;;63.58;37.10;;;6.40;99.90;;;;;;5043391;28;20052;-49
2022/11/30 10:24:45;;;;;;;58.67;35.03;;;6.50;99.90;;;;;;5040076;28;20052;-44
2022/11/30 10:27:32;;;;;;;61.15;35.75;;;6.60;99.90;;;;;;5043138;28;20070;-47
2022/11/30 10:30:00;;;;;;;60.33;36.08;;;6.60;99.90;;;;;;5044346;28;20153;-47
2022/11/30 10:32:34;;;;;;;61.03;36.10;;;6.70;99.90;;;;;;5043580;28;20059;-50
2022/11/30 10:35:20;;;;;;;57.10;34.95;;;6.70;99.90;;;;;;5045629;28;20052;-50
2022/11/30 10:37:48;;;;;;;60.90;34.97;;;6.60;99.90;;;;;;5053426;28;20450;-47
2022/11/30 10:40:18;;;;;;;65.85;36.63;;;6.70;99.90;;;;;;5049119;28;20526;-44
2022/11/30 10:42:51;;;;;;;59.15;36.42;;;6.80;99.90;;;;;;5051684;28;20059;-47
2022/11/30 10:45:22;;;;;;;49.87;31.03;;;6.70;99.90;;;;;;5073780;28;20053;-48
2022/11/30 10:47:52;;;;;;;56.17;34.42;;;6.70;99.90;;;;;;5054224;28;20080;-45
2022/11/30 10:50:17;;;;;;;55.22;35.60;;;6.80;99.90;;;;;;5054242;28;20131;-45
2022/11/30 10:52:47;;;;;;;58.65;35.53;;;6.70;99.90;;;;;;5050004;28;20053;-43
2022/11/30 10:55:17;;;;;;;59.67;35.17;;;6.90;99.90;;;;;;5057730;28;20044;-44
2022/11/30 10:57:45;;;;;;;60.15;35.90;;;6.90;99.90;;;;;;5056459;28;20117;-43
2022/11/30 11:00:14;;;;;;;57.85;35.92;;;7.00;99.90;;;;;;5055613;28;20058;-47
2022/11/30 11:02:47;;;;;;;58.60;35.53;;;6.90;99.90;;;;;;5056404;28;20078;-49
2022/11/30 11:05:22;;;;;;;60.05;36.15;;;7.00;99.90;;;;;;5057460;28;20106;-44
2022/11/30 11:08:01;;;;;;;60.15;37.17;;;7.00;99.90;;;;;;5056527;28;20044;-50
2022/11/30 11:10:50;;;;;;;59.30;37.15;;;7.00;99.90;;;;;;5057569;28;20123;-44
2022/11/30 11:13:19;;;;;;;54.83;35.10;;;7.00;99.90;;;;;;5056795;28;20322;-45
2022/11/30 11:15:59;;;;;;;59.00;37.05;;;7.10;99.90;;;;;;5056772;28;20494;-49
2022/11/30 11:18:30;;;;;;;54.38;34.40;;;7.10;99.90;;;;;;5057169;28;20055;-47
2022/11/30 11:21:04;;;;;;;58.03;36.15;;;7.20;99.90;;;;;;5045043;28;20559;-47
2022/11/30 11:23:37;;;;;;;50.10;33.60;;;7.10;99.90;;;;;;5057016;28;20049;-46
2022/11/30 11:26:14;;;;;;;55.20;34.85;;;7.20;99.90;;;;;;5057260;28;20523;-43
2022/11/30 11:28:44;;;;;;;52.45;34.35;;;7.30;99.90;;;;;;5056065;28;20044;-47
2022/11/30 11:31:35;;;;;;;52.78;35.97;;;7.30;99.90;;;;;;5056474;28;20494;-47
2022/11/30 11:34:02;;;;;;;48.33;33.63;;;7.20;99.90;;;;;;5039870;28;20056;-47
2022/11/30 11:36:35;;;;;;;49.38;33.83;;;7.20;99.90;;;;;;5056871;28;20379;-44
2022/11/30 11:39:02;;;;;;;55.88;33.88;;;7.20;99.90;;;;;;5055167;28;20542;-47
2022/11/30 11:41:37;;;;;;;50.83;34.35;;;7.20;99.90;;;;;;5053519;28;20483;-44
2022/11/30 11:44:08;;;;;;;42.60;31.17;;;7.30;99.90;;;;;;5053819;28;20103;-51
2022/11/30 11:46:37;;;;;;;50.75;35.55;;;7.30;99.90;;;;;;5055518;28;20117;-48
2022/11/30 11:49:20;;;;;;;50.17;34.08;;;7.40;99.90;;;;;;5054529;28;20048;-45
2022/11/30 11:51:45;;;;;;;47.28;32.65;;;7.40;99.90;;;;;;5055355;28;20495;-47
2022/11/30 11:54:16;;;;;;;47.63;31.75;;;7.40;99.90;;;;;;5056424;28;20036;-47
2022/11/30 11:56:42;;;;;;;49.80;34.10;;;7.40;99.90;;;;;;5055998;28;20049;-44
2022/11/30 11:59:08;;;;;;;53.17;36.67;;;7.40;99.90;;;;;;5055463;28;20036;-47
2022/11/30 12:01:55;;;;;;;50.50;35.40;;;7.30;99.90;;;;;;5055071;28;20114;-48
2022/11/30 12:04:40;;;;;;;52.58;36.40;;;7.40;99.90;;;;;;5054123;28;20119;-48
2022/11/30 12:07:37;;;;;;;51.00;36.05;;;7.30;99.90;;;;;;5055383;28;20052;-47
2022/11/30 12:10:26;;;;;;;48.25;33.63;;;7.30;99.90;;;;;;5038087;28;20064;-45
2022/11/30 12:12:54;;;;;;;47.03;33.75;;;7.30;99.90;;;;;;5039937;28;20040;-48
2022/11/30 12:15:32;;;;;;;44.30;30.88;;;7.30;99.90;;;;;;5041691;28;20040;-44
2022/11/30 12:18:09;;;;;;;44.42;33.75;;;7.20;99.90;;;;;;5047848;28;20051;-49
2022/11/30 12:20:43;;;;;;;45.30;32.40;;;7.20;99.90;;;;;;5054180;28;20044;-47
2022/11/30 12:23:31;;;;;;;44.45;32.00;;;7.30;99.90;;;;;;5054883;28;20045;-45
2022/11/30 12:26:11;;;;;;;49.15;32.95;;;7.30;99.90;;;;;;5049150;28;20055;-48
2022/11/30 12:28:58;;;;;;;50.28;35.50;;;7.30;99.90;;;;;;5053176;28;20071;-45
2022/11/30 12:31:49;;;;;;;49.65;34.50;;;7.30;99.90;;;;;;5056413;28;20053;-43
2022/11/30 12:34:46;;;;;;;55.30;34.65;;;7.30;99.90;;;;;;5051226;28;20040;-44
2022/11/30 12:37:44;;;;;;;46.30;31.60;;;7.40;99.90;;;;;;5054246;28;20056;-44
2022/11/30 12:40:09;;;;;;;42.20;29.48;;;7.40;99.90;;;;;;5053556;28;20825;-43
2022/11/30 12:42:54;;;;;;;47.55;32.47;;;7.40;99.90;;;;;;5054774;28;20036;-49
2022/11/30 12:45:38;;;;;;;47.72;32.10;;;7.40;99.90;;;;;;5055919;28;20044;-43
2022/11/30 12:48:19;;;;;;;47.03;31.45;;;7.40;99.90;;;;;;5054336;28;20052;-46